Time;durP1;ratioP1;P1;durP2;ratioP2;P2;SDS_P1;SDS_P2;PMS_P1;PMS_P2;Temp;Humidity;BMP_temperature;BMP_pressure;BME280_temperature;BME280_humidity;BME280_pressure;Samples;Min_cycle;Max_cycle;Signal;HPM_P1;HPM_P2
2022/10/07 00:01:45;;;;;;;10.73;2.03;;;10.00;99.90;;;;;;4990112;28;20042;-92
2022/10/07 00:04:10;;;;;;;18.85;2.38;;;10.00;99.90;;;;;;4974028;28;20042;-92
2022/10/07 00:06:36;;;;;;;11.35;2.25;;;10.00;99.90;;;;;;4989388;28;20045;-91
2022/10/07 00:09:02;;;;;;;16.77;2.42;;;10.00;99.90;;;;;;4990332;28;20073;-92
2022/10/07 00:11:28;;;;;;;16.02;1.70;;;10.00;99.90;;;;;;4989677;28;20054;-92
2022/10/07 00:13:57;;;;;;;12.95;2.85;;;10.00;99.90;;;;;;4989980;28;20474;-93
2022/10/07 00:16:26;;;;;;;19.17;2.70;;;10.10;99.90;;;;;;4989770;28;20069;-91
2022/10/07 00:18:56;;;;;;;16.42;2.58;;;10.00;99.90;;;;;;4990016;28;20125;-91
2022/10/07 00:21:23;;;;;;;18.73;2.35;;;10.00;99.90;;;;;;4988424;28;20042;-90
2022/10/07 00:23:49;;;;;;;13.00;3.00;;;10.00;99.90;;;;;;4989648;28;20550;-92
2022/10/07 00:26:18;;;;;;;23.70;3.42;;;10.00;99.90;;;;;;4989461;28;20137;-92
2022/10/07 00:28:45;;;;;;;22.30;2.90;;;10.00;99.90;;;;;;4989386;28;20046;-92
2022/10/07 00:31:14;;;;;;;9.73;2.13;;;10.00;99.90;;;;;;4989468;28;20089;-90
2022/10/07 00:33:40;;;;;;;15.68;2.40;;;9.90;99.90;;;;;;4989901;28;20133;-92
2022/10/07 00:36:10;;;;;;;18.75;2.58;;;10.00;99.90;;;;;;4988825;28;20065;-90
2022/10/07 00:38:37;;;;;;;17.65;2.33;;;9.90;99.90;;;;;;4989948;28;20419;-90
2022/10/07 00:41:03;;;;;;;12.48;2.40;;;9.90;99.90;;;;;;4989569;28;20121;-92
2022/10/07 00:43:30;;;;;;;15.48;2.50;;;9.90;99.90;;;;;;4972552;28;20141;-91
2022/10/07 00:46:03;;;;;;;15.63;2.20;;;9.90;99.90;;;;;;4989156;28;20046;-91
2022/10/07 00:48:32;;;;;;;12.18;2.50;;;9.90;99.90;;;;;;4989043;28;20490;-92
2022/10/07 00:51:00;;;;;;;16.65;2.30;;;9.90;99.90;;;;;;4989148;28;20491;-93
2022/10/07 00:53:30;;;;;;;14.60;2.25;;;9.90;99.90;;;;;;4989850;28;20046;-91
2022/10/07 00:56:00;;;;;;;16.05;2.33;;;9.90;99.90;;;;;;4987030;28;20046;-92
2022/10/07 00:58:28;;;;;;;13.02;2.08;;;9.90;99.90;;;;;;4973691;28;20097;-91
2022/10/07 01:00:53;;;;;;;12.18;2.72;;;9.80;99.90;;;;;;4971913;28;20159;-91
2022/10/07 01:03:19;;;;;;;10.57;2.10;;;9.80;99.90;;;;;;4972235;28;20043;-92
2022/10/07 01:05:45;;;;;;;13.88;2.45;;;9.90;99.90;;;;;;4972219;28;20117;-91
2022/10/07 01:08:14;;;;;;;15.43;1.95;;;9.80;99.90;;;;;;4972350;28;20490;-92
2022/10/07 01:10:48;;;;;;;13.60;2.10;;;9.80;99.90;;;;;;4971874;28;20102;-91
2022/10/07 01:13:26;;;;;;;12.68;2.20;;;9.80;99.90;;;;;;4972179;28;20066;-91
2022/10/07 01:16:09;;;;;;;12.60;2.50;;;9.80;99.90;;;;;;4970392;28;20045;-90
2022/10/07 01:18:51;;;;;;;15.00;2.55;;;9.80;99.90;;;;;;4981541;28;20101;-90
2022/10/07 01:21:38;;;;;;;15.20;2.63;;;9.80;99.90;;;;;;4971011;28;20050;-91
2022/10/07 01:24:32;;;;;;;23.00;3.17;;;9.80;99.90;;;;;;4972518;28;20120;-91
2022/10/07 01:27:03;;;;;;;;;;;9.80;99.90;;;;;;4969560;28;20130;-92
2022/10/07 01:29:35;;;;;;;13.63;2.65;;;9.80;99.90;;;;;;4969567;28;20412;-91
2022/10/07 01:32:21;;;;;;;12.57;2.22;;;9.80;99.90;;;;;;4968615;28;20117;-92
2022/10/07 01:34:50;;;;;;;10.82;2.85;;;9.70;99.90;;;;;;4968285;28;20047;-92
2022/10/07 01:37:18;;;;;;;18.75;2.67;;;9.70;99.90;;;;;;4972857;28;20042;-92
2022/10/07 01:39:48;;;;;;;11.32;2.33;;;9.80;99.90;;;;;;4988207;28;20050;-92
2022/10/07 01:42:15;;;;;;;11.52;2.28;;;9.70;99.90;;;;;;4989212;28;20042;-91
2022/10/07 01:44:44;;;;;;;10.15;2.42;;;9.70;99.90;;;;;;4988161;28;20046;-93
2022/10/07 01:47:10;;;;;;;16.73;2.58;;;9.70;99.90;;;;;;4989204;28;20568;-92
2022/10/07 01:49:36;;;;;;;13.00;2.35;;;9.60;99.90;;;;;;4989081;28;20038;-92
2022/10/07 01:52:29;;;;;;;20.52;3.05;;;9.60;99.90;;;;;;4971900;28;20050;-91
2022/10/07 01:55:06;;;;;;;19.38;3.80;;;9.60;99.90;;;;;;4988866;28;20061;-92
2022/10/07 01:57:51;;;;;;;11.07;3.13;;;9.60;99.90;;;;;;4989403;28;20069;-92
2022/10/07 02:00:17;;;;;;;16.23;3.35;;;9.60;99.90;;;;;;4988905;28;20502;-92
2022/10/07 02:02:49;;;;;;;13.82;3.35;;;9.60;99.90;;;;;;4988947;28;20141;-91
2022/10/07 02:05:32;;;;;;;12.63;2.60;;;9.60;99.90;;;;;;4988298;28;20049;-91
2022/10/07 02:08:14;;;;;;;12.45;2.35;;;9.50;99.90;;;;;;4988437;28;20113;-92
2022/10/07 02:11:00;;;;;;;21.30;3.63;;;9.50;99.90;;;;;;4988865;28;20140;-92
2022/10/07 02:13:36;;;;;;;14.60;2.70;;;9.50;99.90;;;;;;4991529;28;20064;-92
2022/10/07 02:16:08;;;;;;;12.52;2.28;;;9.50;99.90;;;;;;4963940;28;20046;-92
2022/10/07 02:18:37;;;;;;;13.30;2.95;;;9.40;99.90;;;;;;4973247;28;20077;-91
2022/10/07 02:21:05;;;;;;;17.65;3.28;;;9.50;99.90;;;;;;4971627;28;20054;-91
2022/10/07 02:23:33;;;;;;;16.33;3.30;;;9.40;99.90;;;;;;4972826;28;20038;-92
2022/10/07 02:26:01;;;;;;;14.18;2.67;;;9.40;99.90;;;;;;4972259;28;20176;-92
2022/10/07 02:28:29;;;;;;;15.45;2.80;;;9.40;99.90;;;;;;4972001;28;20038;-93
2022/10/07 02:30:59;;;;;;;17.33;2.88;;;9.40;99.90;;;;;;4972398;28;20050;-92
2022/10/07 02:33:27;;;;;;;14.95;2.78;;;9.40;99.90;;;;;;4972383;28;20061;-91
2022/10/07 02:35:58;;;;;;;12.05;2.55;;;9.40;99.90;;;;;;4970915;28;20050;-93
2022/10/07 02:38:25;;;;;;;11.48;2.95;;;9.40;99.90;;;;;;4956144;28;20048;-92
2022/10/07 02:40:58;;;;;;;19.73;3.83;;;9.40;99.90;;;;;;4971642;28;20042;-93
2022/10/07 02:43:35;;;;;;;21.02;3.60;;;9.40;99.90;;;;;;4972319;28;20101;-92
2022/10/07 02:46:09;;;;;;;17.30;2.63;;;9.30;99.90;;;;;;4972290;28;20050;-92
2022/10/07 02:48:42;;;;;;;18.52;3.05;;;9.40;99.90;;;;;;4974911;28;20049;-91
2022/10/07 02:51:17;;;;;;;18.70;3.15;;;9.30;99.90;;;;;;4974956;28;20169;-91
2022/10/07 02:53:48;;;;;;;18.52;2.50;;;9.40;99.90;;;;;;4975662;28;20109;-91
2022/10/07 02:56:15;;;;;;;16.55;3.13;;;9.30;99.90;;;;;;4974802;28;20041;-91
2022/10/07 02:58:44;;;;;;;21.48;3.30;;;9.40;99.90;;;;;;4975689;28;20038;-92
2022/10/07 03:01:16;;;;;;;18.20;2.85;;;9.40;99.90;;;;;;4974866;28;20046;-90
2022/10/07 03:03:43;;;;;;;15.50;3.17;;;9.30;99.90;;;;;;4974836;28;20046;-92
2022/10/07 03:06:10;;;;;;;17.10;2.92;;;9.30;99.90;;;;;;4974414;28;20050;-91
2022/10/07 03:08:36;;;;;;;19.58;3.05;;;9.30;99.90;;;;;;4976101;28;20077;-92
2022/10/07 03:11:02;;;;;;;16.30;2.95;;;9.30;99.90;;;;;;4974027;28;20085;-90
2022/10/07 03:13:27;;;;;;;12.00;2.72;;;9.30;99.90;;;;;;4975199;28;20050;-91
2022/10/07 03:15:53;;;;;;;19.80;3.63;;;9.30;99.90;;;;;;4974751;28;20078;-92
2022/10/07 03:18:25;;;;;;;14.63;3.80;;;9.30;99.90;;;;;;4990479;28;20042;-91
2022/10/07 03:20:52;;;;;;;13.40;2.83;;;9.30;99.90;;;;;;4974462;28;20129;-90
2022/10/07 03:23:18;;;;;;;21.95;4.05;;;9.30;99.90;;;;;;4974423;28;20431;-91
2022/10/07 03:25:50;;;;;;;30.90;3.55;;;9.30;99.90;;;;;;4974912;28;20435;-91
2022/10/07 03:28:15;;;;;;;21.35;3.38;;;9.30;99.90;;;;;;4974792;28;20038;-90
2022/10/07 03:30:41;;;;;;;18.30;3.47;;;9.30;99.90;;;;;;4974041;28;20053;-91
2022/10/07 03:33:07;;;;;;;18.75;3.80;;;9.30;99.90;;;;;;4974479;28;20068;-92
2022/10/07 03:35:32;;;;;;;16.83;3.33;;;9.30;99.90;;;;;;4974421;28;20103;-93
2022/10/07 03:37:58;;;;;;;20.30;3.60;;;9.30;99.90;;;;;;4974325;28;20054;-90
2022/10/07 03:40:24;;;;;;;23.30;3.78;;;9.30;99.90;;;;;;4974632;28;20043;-92
2022/10/07 03:42:49;;;;;;;10.77;2.92;;;9.20;99.90;;;;;;4974812;28;20042;-91
2022/10/07 03:45:15;;;;;;;18.02;3.45;;;9.30;99.90;;;;;;4973708;28;20109;-91
2022/10/07 03:47:41;;;;;;;17.15;3.28;;;9.30;99.90;;;;;;4974675;28;20390;-91
2022/10/07 03:50:07;;;;;;;16.17;3.53;;;9.20;99.90;;;;;;4973827;28;20041;-92
2022/10/07 03:52:35;;;;;;;17.67;3.42;;;9.20;99.90;;;;;;4974289;28;20072;-92
2022/10/07 03:55:01;;;;;;;19.73;3.63;;;9.10;99.90;;;;;;4974341;28;20471;-91
2022/10/07 04:00:12;;;;;;;17.88;3.55;;;9.10;99.90;;;;;;4973621;28;20077;-92
2022/10/07 04:02:37;;;;;;;18.00;3.53;;;9.10;99.90;;;;;;4974985;28;20477;-92
2022/10/07 04:05:03;;;;;;;23.90;4.20;;;9.10;99.90;;;;;;4973183;28;20038;-92
2022/10/07 04:07:29;;;;;;;15.25;3.67;;;9.00;99.90;;;;;;4973921;28;20132;-93
2022/10/07 04:09:55;;;;;;;19.30;3.95;;;8.90;99.90;;;;;;4973868;28;20046;-95
2022/10/07 04:12:21;;;;;;;20.98;4.10;;;8.90;99.90;;;;;;4973728;28;20054;-92
2022/10/07 04:14:47;;;;;;;20.65;3.78;;;8.80;99.90;;;;;;4975208;28;20052;-92
2022/10/07 04:17:12;;;;;;;23.17;4.07;;;8.80;99.90;;;;;;4993330;28;20136;-94
2022/10/07 04:19:38;;;;;;;18.67;3.78;;;8.70;99.90;;;;;;4993277;28;20041;-92
2022/10/07 04:22:05;;;;;;;21.67;4.28;;;8.70;99.90;;;;;;4993050;28;20045;-92
2022/10/07 04:24:30;;;;;;;20.38;3.95;;;8.70;99.90;;;;;;4977055;28;20721;-91
2022/10/07 04:26:56;;;;;;;22.60;3.78;;;8.60;99.90;;;;;;4991079;28;20076;-91
2022/10/07 04:29:22;;;;;;;17.73;3.63;;;8.60;99.90;;;;;;4976945;28;20125;-87
2022/10/07 04:31:47;;;;;;;15.65;4.07;;;8.60;99.90;;;;;;5009943;28;20046;-89
2022/10/07 04:34:13;;;;;;;25.25;4.47;;;8.60;99.90;;;;;;4992438;28;20037;-91
2022/10/07 04:36:39;;;;;;;22.75;6.07;;;8.70;99.90;;;;;;4992234;28;20503;-92
2022/10/07 04:39:05;;;;;;;17.48;4.55;;;8.60;99.90;;;;;;4993273;28;20053;-89
2022/10/07 04:41:30;;;;;;;20.33;4.47;;;8.70;99.90;;;;;;4976037;28;20033;-92
2022/10/07 04:43:56;;;;;;;19.35;3.80;;;8.80;99.90;;;;;;4993536;28;20041;-91
2022/10/07 04:46:22;;;;;;;19.10;4.32;;;8.80;99.90;;;;;;4993025;28;20085;-91
2022/10/07 04:48:47;;;;;;;23.23;4.93;;;8.80;99.90;;;;;;4992684;28;20049;-90
2022/10/07 04:51:14;;;;;;;21.35;4.82;;;8.80;99.90;;;;;;4976461;28;20042;-91
2022/10/07 04:53:40;;;;;;;17.40;4.32;;;8.90;99.90;;;;;;4974421;28;20057;-90
2022/10/07 04:56:07;;;;;;;22.70;4.43;;;8.90;99.90;;;;;;4972907;28;20406;-89
2022/10/07 04:58:33;;;;;;;22.63;4.78;;;8.90;99.90;;;;;;4973349;28;20038;-90
2022/10/07 05:01:00;;;;;;;24.00;5.43;;;8.90;99.90;;;;;;4973266;28;20060;-91
2022/10/07 05:03:28;;;;;;;20.10;4.47;;;9.00;99.90;;;;;;4972958;28;20385;-91
2022/10/07 05:06:00;;;;;;;27.83;4.13;;;8.90;99.90;;;;;;4972616;28;20096;-92
2022/10/07 05:08:26;;;;;;;16.92;4.32;;;8.80;99.90;;;;;;4973857;28;20046;-91
2022/10/07 05:10:54;;;;;;;23.52;5.10;;;8.90;99.90;;;;;;4972382;28;20057;-91
2022/10/07 05:13:21;;;;;;;23.38;5.18;;;8.80;99.90;;;;;;4973553;28;20571;-91
2022/10/07 05:15:48;;;;;;;20.55;4.68;;;8.90;99.90;;;;;;4972135;28;20046;-91
2022/10/07 05:18:14;;;;;;;22.60;4.68;;;8.90;99.90;;;;;;4973143;28;20053;-91
2022/10/07 05:20:42;;;;;;;23.00;5.80;;;8.90;99.90;;;;;;4988543;28;20133;-90
2022/10/07 05:23:08;;;;;;;19.58;4.35;;;8.80;99.90;;;;;;4972346;28;20050;-90
2022/10/07 05:25:34;;;;;;;21.55;4.28;;;8.80;99.90;;;;;;4973397;28;20048;-92
2022/10/07 05:28:00;;;;;;;24.30;4.97;;;8.80;99.90;;;;;;4972838;28;20050;-90
2022/10/07 05:30:26;;;;;;;16.60;4.80;;;8.90;99.90;;;;;;4972478;28;20058;-90
2022/10/07 05:32:53;;;;;;;19.52;5.72;;;8.90;99.90;;;;;;4972269;28;20057;-91
2022/10/07 05:35:20;;;;;;;25.60;5.15;;;9.00;99.90;;;;;;4971908;28;20125;-90
2022/10/07 05:37:46;;;;;;;20.88;4.28;;;8.90;99.90;;;;;;4971656;28;20047;-91
2022/10/07 05:40:12;;;;;;;27.10;5.20;;;8.90;99.90;;;;;;4972641;28;20078;-90
2022/10/07 05:42:38;;;;;;;23.27;4.65;;;8.90;99.90;;;;;;4973090;28;20088;-90
2022/10/07 05:45:04;;;;;;;28.02;5.43;;;9.00;99.90;;;;;;4972120;28;20078;-91
2022/10/07 05:47:32;;;;;;;24.20;5.85;;;9.00;99.90;;;;;;4972727;28;20093;-90
2022/10/07 05:49:58;;;;;;;24.77;5.30;;;9.00;99.90;;;;;;4971415;28;20074;-91
2022/10/07 05:52:24;;;;;;;22.13;4.80;;;9.00;99.90;;;;;;4972045;28;20107;-90
2022/10/07 05:54:50;;;;;;;24.80;5.03;;;9.00;99.90;;;;;;4972837;28;20089;-91
2022/10/07 05:57:16;;;;;;;25.63;5.18;;;9.00;99.90;;;;;;4972637;28;20042;-91
2022/10/07 05:59:43;;;;;;;20.98;4.40;;;9.00;99.90;;;;;;4972011;28;20379;-91
2022/10/07 06:02:13;;;;;;;25.35;5.15;;;9.00;99.90;;;;;;4971882;28;20061;-90
2022/10/07 06:04:41;;;;;;;29.05;4.78;;;9.10;99.90;;;;;;4972285;28;20050;-90
2022/10/07 06:07:09;;;;;;;20.80;4.57;;;9.20;99.90;;;;;;4970858;28;20487;-91
2022/10/07 06:15:04;;;;;;;29.08;5.15;;;9.20;99.90;;;;;;4972492;28;20069;-91
2022/10/07 06:17:30;;;;;;;25.17;5.45;;;9.30;99.90;;;;;;4972009;28;20123;-90
2022/10/07 06:19:55;;;;;;;20.20;4.22;;;9.30;99.90;;;;;;4971362;28;20084;-91
2022/10/07 06:22:21;;;;;;;19.83;5.10;;;9.20;99.90;;;;;;4975197;28;20478;-91
2022/10/07 06:24:47;;;;;;;30.60;5.40;;;9.30;99.90;;;;;;4976325;28;20077;-91
2022/10/07 06:27:13;;;;;;;18.35;4.70;;;9.30;99.90;;;;;;4975843;28;20089;-90
2022/10/07 06:29:39;;;;;;;25.80;5.00;;;9.40;99.90;;;;;;4976437;28;20108;-91
2022/10/07 06:32:05;;;;;;;23.55;5.15;;;9.50;99.90;;;;;;4976044;28;20077;-90
2022/10/07 06:34:30;;;;;;;19.52;4.80;;;9.40;99.90;;;;;;4975081;28;20497;-91
2022/10/07 06:36:56;;;;;;;22.02;4.68;;;9.50;99.90;;;;;;4974971;28;20061;-89
2022/10/07 06:39:22;;;;;;;24.17;5.53;;;9.60;99.90;;;;;;4975842;28;20050;-93
2022/10/07 06:41:48;;;;;;;23.65;5.72;;;9.60;99.90;;;;;;4977442;28;20049;-92
2022/10/07 06:44:13;;;;;;;22.98;5.28;;;9.60;99.90;;;;;;4979158;28;20057;-92
2022/10/07 06:46:39;;;;;;;23.33;5.40;;;9.70;99.90;;;;;;4978870;28;20054;-92
2022/10/07 06:49:05;;;;;;;19.98;4.57;;;9.70;99.90;;;;;;4978676;28;20401;-92
2022/10/07 06:51:30;;;;;;;28.65;6.00;;;9.70;99.90;;;;;;4979370;28;20196;-92
2022/10/07 06:54:05;;;;;;;21.38;5.35;;;9.80;99.90;;;;;;4976755;28;20038;-92
2022/10/07 06:56:31;;;;;;;22.98;4.82;;;10.00;99.90;;;;;;4986925;28;20030;-93
2022/10/07 06:58:57;;;;;;;25.63;5.90;;;9.70;99.90;;;;;;4977870;28;20379;-93
2022/10/07 07:01:23;;;;;;;30.30;5.30;;;9.90;99.90;;;;;;4978002;28;20132;-92
2022/10/07 07:03:48;;;;;;;24.05;5.80;;;10.00;99.90;;;;;;4975863;28;20050;-93
2022/10/07 07:06:14;;;;;;;22.10;4.60;;;10.10;99.90;;;;;;4977791;28;20038;-93
2022/10/07 07:08:40;;;;;;;26.45;4.93;;;10.20;99.90;;;;;;4978036;28;20050;-93
2022/10/07 07:13:53;;;;;;;23.48;4.90;;;10.20;99.90;;;;;;4994753;28;20050;-92
2022/10/07 07:16:19;;;;;;;28.02;4.90;;;10.20;99.90;;;;;;4977777;28;20041;-91
2022/10/07 07:18:51;;;;;;;18.52;4.15;;;10.30;99.90;;;;;;4977777;28;20100;-91
2022/10/07 07:21:17;;;;;;;20.67;5.03;;;10.40;99.90;;;;;;4977868;28;20088;-90
2022/10/07 07:23:43;;;;;;;19.48;4.13;;;10.40;99.90;;;;;;4977345;28;20077;-90
2022/10/07 07:26:08;;;;;;;21.08;4.38;;;10.40;99.90;;;;;;4978071;28;20104;-90
2022/10/07 07:28:34;;;;;;;20.65;5.43;;;10.50;99.90;;;;;;4978352;28;20045;-90
2022/10/07 07:31:08;;;;;;;26.80;4.88;;;10.60;99.90;;;;;;4977110;28;20506;-90
2022/10/07 07:33:37;;;;;;;24.92;4.63;;;10.60;99.90;;;;;;4976808;28;20096;-91
2022/10/07 07:36:15;;;;;;;21.40;4.20;;;10.60;99.90;;;;;;4977193;28;20049;-92
2022/10/07 07:38:42;;;;;;;20.63;4.28;;;10.70;99.90;;;;;;4977333;28;20393;-91
2022/10/07 07:41:09;;;;;;;21.08;4.70;;;10.80;99.90;;;;;;4977251;28;20085;-91
2022/10/07 07:43:36;;;;;;;26.63;4.70;;;10.90;99.90;;;;;;4974744;28;20034;-92
2022/10/07 07:46:01;;;;;;;22.83;4.97;;;10.90;99.90;;;;;;4974670;28;20038;-92
2022/10/07 07:48:27;;;;;;;22.13;4.43;;;11.00;99.90;;;;;;4974633;28;20553;-92
2022/10/07 07:50:53;;;;;;;23.70;4.68;;;11.00;99.90;;;;;;4973547;28;20082;-92
2022/10/07 07:53:21;;;;;;;28.30;5.10;;;11.10;99.90;;;;;;4974753;28;20080;-93
2022/10/07 07:55:52;;;;;;;14.98;3.80;;;11.20;99.90;;;;;;4974984;28;20050;-92
2022/10/07 07:58:20;;;;;;;29.08;4.65;;;11.30;99.90;;;;;;4973818;28;20402;-92
2022/10/07 08:00:56;;;;;;;20.33;4.60;;;11.30;99.90;;;;;;4974322;28;20082;-93
2022/10/07 08:03:22;;;;;;;22.02;4.60;;;11.40;99.90;;;;;;4975691;28;20038;-92
2022/10/07 08:05:48;;;;;;;25.08;4.32;;;11.50;99.90;;;;;;4976285;28;20111;-91
2022/10/07 08:08:13;;;;;;;17.63;4.20;;;11.50;99.90;;;;;;4977969;28;20109;-92
2022/10/07 08:10:41;;;;;;;18.80;4.38;;;11.60;99.90;;;;;;4977387;28;20485;-93
2022/10/07 08:13:08;;;;;;;25.90;3.85;;;11.70;99.90;;;;;;4976761;28;20053;-95
2022/10/07 08:15:35;;;;;;;22.77;4.40;;;11.80;99.90;;;;;;4977506;28;20373;-92
2022/10/07 08:18:05;;;;;;;24.58;4.53;;;11.70;99.90;;;;;;4977278;28;20038;-91
2022/10/07 08:20:31;;;;;;;15.93;4.20;;;12.00;99.90;;;;;;4976401;28;20116;-92
2022/10/07 08:22:58;;;;;;;19.85;4.20;;;12.10;99.90;;;;;;4977420;28;20116;-91
2022/10/07 08:25:25;;;;;;;22.90;3.88;;;12.20;99.90;;;;;;4976941;28;20467;-92
2022/10/07 08:27:50;;;;;;;20.40;3.92;;;12.20;99.90;;;;;;4976446;28;20081;-89
2022/10/07 08:30:16;;;;;;;20.25;4.03;;;12.30;99.90;;;;;;4976478;28;20076;-90
2022/10/07 08:32:42;;;;;;;19.70;3.88;;;12.50;99.90;;;;;;4976508;28;20045;-89
2022/10/07 08:35:08;;;;;;;20.60;3.85;;;12.60;99.90;;;;;;4976361;28;20045;-90
2022/10/07 08:37:33;;;;;;;29.52;4.47;;;12.60;99.90;;;;;;4976833;28;20634;-90
2022/10/07 08:39:59;;;;;;;20.27;3.65;;;12.70;99.90;;;;;;4975972;28;20097;-89
2022/10/07 08:42:28;;;;;;;22.25;4.85;;;12.90;99.90;;;;;;4976183;28;20407;-90
2022/10/07 08:44:54;;;;;;;20.58;4.03;;;12.90;99.90;;;;;;4975577;28;20045;-90
2022/10/07 08:47:27;;;;;;;18.20;3.40;;;13.00;99.90;;;;;;4975867;28;20045;-90
2022/10/07 08:50:03;;;;;;;21.40;4.38;;;13.10;99.90;;;;;;4993604;28;20050;-90
2022/10/07 08:52:36;;;;;;;19.60;3.72;;;13.20;99.90;;;;;;4975542;28;20042;-92
2022/10/07 08:55:13;;;;;;;17.40;3.90;;;13.30;99.90;;;;;;4976168;28;20042;-90
2022/10/07 08:57:46;;;;;;;19.30;3.38;;;13.40;99.90;;;;;;4977272;28;20046;-92
2022/10/07 09:00:16;;;;;;;26.07;3.83;;;13.50;99.90;;;;;;4978038;28;20042;-90
2022/10/07 09:02:49;;;;;;;19.83;4.15;;;13.60;99.90;;;;;;4978228;28;20045;-90
2022/10/07 09:05:21;;;;;;;20.55;3.10;;;13.60;99.90;;;;;;4976232;28;20359;-89
2022/10/07 09:07:52;;;;;;;24.08;3.67;;;13.70;99.90;;;;;;4972761;28;20046;-88
2022/10/07 09:10:43;;;;;;;18.42;3.38;;;13.80;99.90;;;;;;4990753;28;20042;-89
2022/10/07 09:13:14;;;;;;;16.45;3.00;;;13.90;99.90;;;;;;4974166;28;20109;-88
2022/10/07 09:15:47;;;;;;;21.92;2.90;;;14.00;99.90;;;;;;4974466;28;20084;-89
2022/10/07 09:18:21;;;;;;;21.80;3.47;;;14.00;99.90;;;;;;4989714;28;20045;-89
2022/10/07 09:20:52;;;;;;;29.20;4.18;;;14.10;99.90;;;;;;4974785;28;20095;-88
2022/10/07 09:23:22;;;;;;;19.02;3.53;;;14.10;99.90;;;;;;4974770;28;20181;-89
2022/10/07 09:25:47;;;;;;;15.55;2.78;;;14.30;99.90;;;;;;4975787;28;20038;-88
2022/10/07 09:28:17;;;;;;;16.67;2.70;;;14.40;99.90;;;;;;4975227;28;20496;-88
2022/10/07 09:30:43;;;;;;;16.33;2.78;;;14.50;99.90;;;;;;4974915;28;20042;-87
2022/10/07 09:33:15;;;;;;;18.75;3.30;;;14.60;99.90;;;;;;4974993;28;20050;-86
2022/10/07 09:35:51;;;;;;;20.42;3.20;;;14.60;99.90;;;;;;4975069;28;20050;-87
2022/10/07 09:38:28;;;;;;;20.05;3.88;;;14.70;99.90;;;;;;4974790;28;20045;-88
2022/10/07 09:41:15;;;;;;;20.13;3.65;;;14.70;99.90;;;;;;4975387;28;20046;-89
2022/10/07 09:43:56;;;;;;;26.60;3.42;;;14.70;99.90;;;;;;4971658;28;20054;-89
2022/10/07 09:46:33;;;;;;;15.32;2.95;;;14.80;99.90;;;;;;4956281;28;20054;-89
2022/10/07 09:49:06;;;;;;;21.70;3.05;;;14.80;99.90;;;;;;4956378;28;20089;-89
2022/10/07 09:51:34;;;;;;;19.25;3.33;;;14.90;99.90;;;;;;4971932;28;20050;-89
2022/10/07 09:54:01;;;;;;;18.27;3.30;;;14.90;99.90;;;;;;4972222;28;20104;-88
2022/10/07 09:56:38;;;;;;;17.00;3.33;;;15.00;99.90;;;;;;4971567;28;20133;-89
2022/10/07 09:59:22;;;;;;;20.05;3.08;;;15.10;99.90;;;;;;4972148;28;20451;-89
2022/10/07 10:01:52;;;;;;;20.15;3.88;;;15.20;99.90;;;;;;4972430;28;20046;-89
2022/10/07 10:04:21;;;;;;;22.20;3.05;;;15.20;99.90;;;;;;4971964;28;20046;-90
2022/10/07 10:06:51;;;;;;;24.02;3.58;;;15.30;99.90;;;;;;4972442;28;20549;-88
2022/10/07 10:09:21;;;;;;;19.75;3.08;;;15.40;99.90;;;;;;4972135;28;20548;-90
2022/10/07 10:12:01;;;;;;;18.10;2.63;;;15.30;99.90;;;;;;4971965;28;20467;-89
2022/10/07 10:14:39;;;;;;;21.02;2.95;;;15.20;99.90;;;;;;4972682;28;20042;-90
2022/10/07 10:17:14;;;;;;;17.52;2.72;;;15.10;99.90;;;;;;4973112;28;20050;-89
2022/10/07 10:19:40;;;;;;;21.13;2.95;;;15.10;99.90;;;;;;4972056;28;20046;-89
2022/10/07 10:22:24;;;;;;;18.83;2.95;;;15.20;99.90;;;;;;4972307;28;20398;-89
2022/10/07 10:27:42;;;;;;;20.40;3.15;;;15.50;99.90;;;;;;4972739;28;20058;-89
2022/10/07 10:30:15;;;;;;;19.10;3.25;;;15.50;99.90;;;;;;4972797;28;20086;-89
2022/10/07 10:33:03;;;;;;;15.50;3.22;;;15.50;99.90;;;;;;4971127;28;20042;-90
2022/10/07 10:35:34;;;;;;;15.90;3.30;;;15.40;99.90;;;;;;4971094;28;20105;-89
2022/10/07 10:38:35;;;;;;;15.25;2.70;;;15.50;99.90;;;;;;4972060;28;20137;-89
2022/10/07 10:41:16;;;;;;;14.38;2.70;;;15.50;99.90;;;;;;4971608;28;20560;-89
2022/10/07 10:43:59;;;;;;;14.82;3.03;;;15.70;99.90;;;;;;4972407;28;20046;-90
2022/10/07 10:46:25;;;;;;;;;;;15.80;99.90;;;;;;4972132;28;20046;-89
2022/10/07 10:48:54;;;;;;;16.40;2.67;;;15.90;99.90;;;;;;4987789;28;19922;-90
2022/10/07 10:52:01;;;;;;;14.95;2.53;;;16.00;99.90;;;;;;4971874;28;20046;-90
2022/10/07 10:54:55;;;;;;;24.42;2.80;;;16.10;99.90;;;;;;4971531;28;20490;-89
2022/10/07 10:57:56;;;;;;;15.88;2.60;;;16.30;99.90;;;;;;4972376;28;20069;-89
2022/10/07 11:00:23;;;;;;;16.98;2.70;;;16.40;99.90;;;;;;4971654;28;20140;-89
2022/10/07 11:03:04;;;;;;;18.88;2.88;;;16.40;99.90;;;;;;4971888;28;20082;-88
2022/10/07 11:05:35;;;;;;;13.25;2.03;;;16.40;99.90;;;;;;4972080;28;20038;-89
2022/10/07 11:08:17;;;;;;;18.02;2.42;;;16.40;99.90;;;;;;4973196;28;20063;-89
2022/10/07 11:10:57;;;;;;;15.47;2.87;;;16.40;99.90;;;;;;4976065;28;20049;-94
2022/10/07 11:13:42;;;;;;;16.48;2.60;;;16.40;99.90;;;;;;4977880;28;20340;-90
2022/10/07 11:16:16;;;;;;;14.68;2.22;;;16.50;99.90;;;;;;4977876;28;20058;-89
2022/10/07 11:18:57;;;;;;;17.50;2.53;;;16.60;99.90;;;;;;4977912;28;20076;-89
2022/10/07 11:21:36;;;;;;;20.50;2.70;;;16.70;99.90;;;;;;4977653;28;20046;-89
2022/10/07 11:24:06;;;;;;;16.38;2.55;;;16.80;99.90;;;;;;4973661;28;20479;-91
2022/10/07 11:26:49;;;;;;;22.35;3.13;;;16.80;99.90;;;;;;4976222;28;20077;-91
2022/10/07 11:29:25;;;;;;;11.00;2.17;;;16.90;99.90;;;;;;4984085;28;20642;-90
2022/10/07 11:32:06;;;;;;;20.25;2.97;;;16.90;99.90;;;;;;4978009;28;20080;-89
2022/10/07 11:34:45;;;;;;;21.55;3.20;;;16.90;99.90;;;;;;4979503;28;20042;-88
2022/10/07 11:37:42;;;;;;;11.73;1.92;;;16.80;99.90;;;;;;4978162;28;20049;-90
2022/10/07 11:40:10;;;;;;;20.00;2.53;;;16.80;99.90;;;;;;4976298;28;20050;-89
2022/10/07 11:42:44;;;;;;;13.23;2.08;;;16.90;99.90;;;;;;4979620;28;20049;-90
2022/10/07 11:45:20;;;;;;;13.90;2.53;;;17.00;99.90;;;;;;4978571;28;20152;-90
2022/10/07 11:47:55;;;;;;;17.33;2.65;;;17.00;99.90;;;;;;4978561;28;20042;-89
2022/10/07 11:50:23;;;;;;;13.50;2.30;;;17.10;99.90;;;;;;4978005;28;20056;-87
2022/10/07 11:52:54;;;;;;;16.30;2.47;;;17.20;99.90;;;;;;4978008;28;20108;-88
2022/10/07 11:55:34;;;;;;;20.70;2.15;;;17.40;99.90;;;;;;4978788;28;20046;-89
2022/10/07 11:58:03;;;;;;;15.82;2.75;;;17.50;99.90;;;;;;4978297;28;20050;-90
2022/10/07 12:00:32;;;;;;;13.05;2.47;;;17.60;99.90;;;;;;4977901;28;20490;-89
2022/10/07 12:03:32;;;;;;;11.52;2.08;;;17.60;99.90;;;;;;4978143;28;20053;-89
2022/10/07 12:06:09;;;;;;;14.88;2.50;;;17.60;99.90;;;;;;4976145;28;20046;-89
2022/10/07 12:08:37;;;;;;;15.48;2.30;;;17.60;99.90;;;;;;4976095;28;20042;-85
2022/10/07 12:11:11;;;;;;;13.57;1.83;;;17.70;99.90;;;;;;4973593;28;20136;-87
2022/10/07 12:13:42;;;;;;;14.63;2.60;;;17.60;99.90;;;;;;4974719;28;20203;-86
2022/10/07 12:16:28;;;;;;;15.32;2.47;;;17.60;99.90;;;;;;4973017;28;20042;-91
2022/10/07 12:19:09;;;;;;;13.15;2.17;;;17.50;99.90;;;;;;4973192;28;20046;-93
2022/10/07 12:22:10;;;;;;;10.80;1.90;;;17.40;99.90;;;;;;4958708;28;20042;-90
2022/10/07 12:24:36;;;;;;;15.20;2.13;;;17.30;99.90;;;;;;4973697;28;20148;-86
2022/10/07 12:27:06;;;;;;;10.80;1.58;;;17.20;99.90;;;;;;4971363;28;20049;-86
2022/10/07 12:29:47;;;;;;;17.00;2.22;;;17.20;99.90;;;;;;4974637;28;20099;-86
2022/10/07 12:32:38;;;;;;;16.33;2.13;;;17.20;99.90;;;;;;4973208;28;20049;-89
2022/10/07 12:35:42;;;;;;;14.00;3.13;;;17.20;99.90;;;;;;4972803;28;20054;-87
2022/10/07 12:38:14;;;;;;;13.73;2.25;;;17.20;99.90;;;;;;4944017;28;20097;-91
2022/10/07 12:40:41;;;;;;;20.83;2.15;;;17.30;99.90;;;;;;4958619;28;20054;-91
2022/10/07 12:43:28;;;;;;;15.70;2.80;;;17.30;99.90;;;;;;4974917;28;20050;-92
2022/10/07 12:45:54;;;;;;;17.80;2.47;;;17.30;99.90;;;;;;4971783;28;20050;-83
2022/10/07 12:48:22;;;;;;;17.15;3.00;;;17.20;99.90;;;;;;4972248;28;20105;-87
2022/10/07 12:50:52;;;;;;;16.45;2.30;;;17.30;99.90;;;;;;4956138;28;20153;-85
2022/10/07 12:53:21;;;;;;;16.33;3.17;;;17.30;99.90;;;;;;4971699;28;20102;-86
2022/10/07 12:55:50;;;;;;;17.45;2.67;;;17.30;99.90;;;;;;4987638;28;20077;-87
2022/10/07 13:02:01;;;;;;;21.73;2.65;;;17.40;99.90;;;;;;4992448;28;20050;-87
2022/10/07 13:04:37;;;;;;;14.38;2.42;;;17.30;99.90;;;;;;4975480;28;20079;-85
2022/10/07 13:07:44;;;;;;;14.27;2.20;;;17.30;99.90;;;;;;4990369;28;20120;-85
2022/10/07 13:10:45;;;;;;;17.85;2.40;;;17.30;99.90;;;;;;4975420;28;20050;-85
2022/10/07 13:13:43;;;;;;;15.82;2.33;;;17.30;99.90;;;;;;4975028;28;20069;-86
2022/10/07 13:16:19;;;;;;;15.27;3.15;;;17.30;99.90;;;;;;4974168;28;20049;-86
2022/10/07 13:18:51;;;;;;;11.60;2.08;;;17.30;99.90;;;;;;4975128;28;20077;-86
2022/10/07 13:21:28;;;;;;;12.60;2.15;;;17.20;99.90;;;;;;5007428;28;20054;-86